createdAt,value
2019-01-10T00:00:01.245Z,49.00
2019-01-10T00:02:28.076Z,45.27
2019-01-10T00:04:54.615Z,48.20
2019-01-10T00:07:21.463Z,49.90
2019-01-10T00:09:48.299Z,48.97
2019-01-10T00:12:14.828Z,51.90
2019-01-10T00:14:41.676Z,49.40
2019-01-10T00:17:08.512Z,47.37
2019-01-10T00:19:35.053Z,46.80
2019-01-10T00:22:01.887Z,44.13
2019-01-10T00:24:28.737Z,48.23
2019-01-10T00:26:55.276Z,44.93
2019-01-10T00:29:22.104Z,45.60
2019-01-10T00:31:48.641Z,41.60
2019-01-10T00:34:15.175Z,44.73
2019-01-10T00:36:42.018Z,42.63
2019-01-10T00:39:08.549Z,49.03
2019-01-10T00:41:35.098Z,39.77
2019-01-10T00:44:01.925Z,39.73
2019-01-10T00:46:28.464Z,46.20
2019-01-10T00:48:55.303Z,41.27
2019-01-10T00:51:21.836Z,43.73
2019-01-10T00:53:48.377Z,41.13
2019-01-10T00:56:14.906Z,42.13
2019-01-10T00:58:41.747Z,39.00
2019-01-10T01:01:08.284Z,38.57
2019-01-10T01:03:35.125Z,43.27
2019-01-10T01:06:01.657Z,41.27
2019-01-10T01:08:28.499Z,38.23
2019-01-10T01:10:55.037Z,41.23
2019-01-10T01:13:21.877Z,41.20
2019-01-10T01:15:48.716Z,41.80
2019-01-10T01:18:15.559Z,37.27
2019-01-10T01:20:42.094Z,36.70
2019-01-10T01:23:08.631Z,36.87
2019-01-10T01:25:35.575Z,40.43
2019-01-10T01:28:02.609Z,41.90
2019-01-10T01:30:29.153Z,35.30
2019-01-10T01:32:55.995Z,40.17
2019-01-10T01:35:22.536Z,37.53
2019-01-10T01:37:49.049Z,40.93
2019-01-10T01:40:15.911Z,37.73
2019-01-10T01:42:42.749Z,39.20
2019-01-10T01:45:09.287Z,39.43
2019-01-10T01:47:35.819Z,38.57
2019-01-10T01:50:02.361Z,41.10
2019-01-10T01:52:29.218Z,42.23
2019-01-10T01:54:56.648Z,42.50
2019-01-10T01:57:23.490Z,44.47
2019-01-10T01:59:50.336Z,47.50
2019-01-10T02:02:17.174Z,51.97
2019-01-10T02:04:44.015Z,46.07
2019-01-10T02:07:10.554Z,46.73
2019-01-10T02:09:37.090Z,45.13
2019-01-10T02:12:03.618Z,47.57
2019-01-10T02:14:30.155Z,41.67
2019-01-10T02:16:56.692Z,52.13
2019-01-10T02:19:23.530Z,44.00
2019-01-10T02:21:50.096Z,42.97
2019-01-10T02:24:16.598Z,41.07
2019-01-10T02:26:43.440Z,46.73
2019-01-10T02:29:09.978Z,41.93
2019-01-10T02:31:36.511Z,44.23
2019-01-10T02:34:03.043Z,41.27
2019-01-10T02:36:29.579Z,43.83
2019-01-10T02:38:56.420Z,41.47
2019-01-10T02:41:24.193Z,40.33
2019-01-10T02:43:50.718Z,39.73
2019-01-10T02:46:17.256Z,40.40
2019-01-10T02:48:43.789Z,44.13
2019-01-10T02:51:10.632Z,43.43
2019-01-10T02:53:37.469Z,42.73
2019-01-10T02:56:04.322Z,42.30
2019-01-10T02:58:30.850Z,45.23
2019-01-10T03:00:57.690Z,46.97
2019-01-10T03:03:24.535Z,44.03
2019-01-10T03:05:51.377Z,44.83
2019-01-10T03:08:17.907Z,43.10
2019-01-10T03:10:44.447Z,44.70
2019-01-10T03:13:10.975Z,41.77
2019-01-10T03:15:37.520Z,43.23
2019-01-10T03:18:04.367Z,43.17
2019-01-10T03:20:30.885Z,41.83
2019-01-10T03:22:57.730Z,40.23
2019-01-10T03:25:24.262Z,39.43
2019-01-10T03:27:51.101Z,43.20
2019-01-10T03:30:17.638Z,42.63
2019-01-10T03:32:44.485Z,41.90
2019-01-10T03:35:11.014Z,40.67
2019-01-10T03:37:37.549Z,42.60
2019-01-10T03:40:04.085Z,39.20
2019-01-10T03:42:30.617Z,44.57
2019-01-10T03:44:57.458Z,40.70
2019-01-10T03:47:23.997Z,42.63
2019-01-10T03:49:50.531Z,41.97
2019-01-10T03:52:17.373Z,40.47
2019-01-10T03:54:43.902Z,40.00
2019-01-10T03:57:10.747Z,44.60
2019-01-10T03:59:37.281Z,40.87
2019-01-10T04:02:03.821Z,41.23
2019-01-10T04:04:30.656Z,39.93
2019-01-10T04:06:57.501Z,42.93
2019-01-10T04:09:24.339Z,41.87
2019-01-10T04:11:51.185Z,44.03
2019-01-10T04:14:18.026Z,39.63
2019-01-10T04:16:44.563Z,40.47
2019-01-10T04:19:11.399Z,42.77
2019-01-10T04:21:37.939Z,41.43
2019-01-10T04:24:04.778Z,43.00
2019-01-10T04:26:31.309Z,41.47
2019-01-10T04:28:58.153Z,38.90
2019-01-10T04:31:24.688Z,40.27
2019-01-10T04:33:51.223Z,42.40
2019-01-10T04:36:18.065Z,43.40
2019-01-10T04:38:44.909Z,40.17
2019-01-10T04:41:11.441Z,40.70
2019-01-10T04:43:37.972Z,43.67
2019-01-10T04:46:04.816Z,40.73
2019-01-10T04:48:31.658Z,40.17
2019-01-10T04:50:58.203Z,39.13
2019-01-10T04:53:26.697Z,40.30
2019-01-10T04:55:52.795Z,38.93
2019-01-10T04:58:19.334Z,42.00
2019-01-10T05:00:45.869Z,38.80
2019-01-10T05:03:12.400Z,45.93
2019-01-10T05:05:38.939Z,40.73
2019-01-10T05:08:05.481Z,39.97
2019-01-10T05:10:32.319Z,42.27
2019-01-10T05:12:58.845Z,40.90
2019-01-10T05:15:25.700Z,37.63
2019-01-10T05:17:52.541Z,39.93
2019-01-10T05:20:19.072Z,41.73
2019-01-10T05:22:46.195Z,37.47
2019-01-10T05:25:12.746Z,39.83
2019-01-10T05:27:39.587Z,36.27
2019-01-10T05:30:06.124Z,37.73
2019-01-10T05:32:32.963Z,37.47
2019-01-10T05:34:59.500Z,36.07
2019-01-10T05:37:26.342Z,34.83
2019-01-10T05:39:52.875Z,40.00
2019-01-10T05:42:19.717Z,38.13
2019-01-10T05:44:46.561Z,36.77
2019-01-10T05:47:13.096Z,36.07
2019-01-10T05:49:39.630Z,34.93
2019-01-10T05:52:06.166Z,34.07
2019-01-10T05:54:33.002Z,34.07
2019-01-10T05:56:59.539Z,32.00
2019-01-10T05:59:26.071Z,31.80
2019-01-10T06:01:52.920Z,35.83
2019-01-10T06:04:19.449Z,35.40
2019-01-10T06:06:46.289Z,35.83
2019-01-10T06:09:13.136Z,35.03
2019-01-10T06:11:39.667Z,36.67
2019-01-10T06:14:06.510Z,35.33
2019-01-10T06:16:33.043Z,36.03
2019-01-10T06:18:59.586Z,42.20
2019-01-10T06:21:26.422Z,33.50
2019-01-10T06:23:53.263Z,35.13
2019-01-10T06:26:19.795Z,34.27
2019-01-10T06:28:46.637Z,33.80
2019-01-10T06:31:13.484Z,33.90
2019-01-10T06:33:40.319Z,32.33
2019-01-10T06:36:06.854Z,32.97
2019-01-10T06:38:33.697Z,34.07
2019-01-10T06:41:00.228Z,30.40
2019-01-10T06:43:27.071Z,36.37
2019-01-10T06:45:53.913Z,36.77
2019-01-10T06:48:20.446Z,32.33
2019-01-10T06:50:46.985Z,35.00
2019-01-10T06:53:13.824Z,30.53
2019-01-10T06:55:42.469Z,33.27
2019-01-10T06:58:08.737Z,33.70
2019-01-10T07:00:35.279Z,32.87
2019-01-10T07:03:02.120Z,32.70
2019-01-10T07:05:28.748Z,28.63
2019-01-10T07:07:56.756Z,29.40
2019-01-10T07:10:23.561Z,29.13
2019-01-10T07:12:50.096Z,28.47
2019-01-10T07:15:16.631Z,29.77
2019-01-10T07:17:43.469Z,28.73
2019-01-10T07:20:10.315Z,29.00
2019-01-10T07:22:36.845Z,29.33
2019-01-10T07:25:03.384Z,28.07
2019-01-10T07:27:30.222Z,32.33
2019-01-10T07:29:59.391Z,26.27
2019-01-10T07:32:25.134Z,28.50
2019-01-10T07:34:51.975Z,26.03
2019-01-10T07:37:18.820Z,29.73
2019-01-10T07:39:45.658Z,27.60
2019-01-10T07:42:12.535Z,30.10
2019-01-10T07:44:39.450Z,26.87
2019-01-10T07:47:08.126Z,26.60
2019-01-10T07:49:34.263Z,26.77
2019-01-10T07:52:01.096Z,28.77
2019-01-10T07:54:27.938Z,32.83
2019-01-10T07:56:54.780Z,25.90
2019-01-10T07:59:21.313Z,35.23
2019-01-10T08:01:47.848Z,30.53
2019-01-10T08:04:14.695Z,28.70
2019-01-10T08:06:41.531Z,25.83
2019-01-10T08:09:08.066Z,27.40
2019-01-10T08:11:34.922Z,25.73
2019-01-10T08:14:01.442Z,27.30
2019-01-10T08:16:28.288Z,25.60
2019-01-10T08:18:54.822Z,29.77
2019-01-10T08:21:21.369Z,25.53
2019-01-10T08:23:48.195Z,27.13
2019-01-10T08:26:14.730Z,26.33
2019-01-10T08:28:41.570Z,25.57
2019-01-10T08:31:08.415Z,23.67
2019-01-10T08:33:34.947Z,25.33
2019-01-10T08:36:01.484Z,33.07
2019-01-10T08:38:28.325Z,24.30
2019-01-10T08:40:54.861Z,24.87
2019-01-10T08:43:21.397Z,25.87
2019-01-10T08:45:47.926Z,27.83
2019-01-10T08:48:14.988Z,29.33
2019-01-10T08:50:41.921Z,25.30
2019-01-10T08:53:08.767Z,27.17
2019-01-10T08:55:35.600Z,26.93
2019-01-10T08:58:02.149Z,24.37
2019-01-10T09:00:28.976Z,26.00
2019-01-10T09:02:55.511Z,26.67
2019-01-10T09:05:22.038Z,25.90
2019-01-10T09:07:48.893Z,26.10
2019-01-10T09:10:15.431Z,25.50
2019-01-10T09:12:42.265Z,24.53
2019-01-10T09:15:08.798Z,27.07
2019-01-10T09:17:35.333Z,25.73
2019-01-10T09:20:02.253Z,24.43
2019-01-10T09:22:29.015Z,24.37
2019-01-10T09:24:55.862Z,21.10
2019-01-10T09:27:22.399Z,25.80
2019-01-10T09:29:48.933Z,24.73
2019-01-10T09:32:15.472Z,24.57
2019-01-10T09:34:42.055Z,24.23
2019-01-10T09:37:08.838Z,24.53
2019-01-10T09:39:35.411Z,25.63
2019-01-10T09:42:02.011Z,24.70
2019-01-10T09:44:28.763Z,26.33
2019-01-10T09:46:55.591Z,24.83
2019-01-10T09:49:22.430Z,30.87
2019-01-10T09:51:49.273Z,25.30
2019-01-10T09:54:16.114Z,26.10
2019-01-10T09:56:42.896Z,26.40
2019-01-10T09:59:09.799Z,25.40
2019-01-10T10:01:36.336Z,23.53
2019-01-10T10:04:03.177Z,23.60
2019-01-10T10:06:30.016Z,29.00
2019-01-10T10:08:56.858Z,26.37
2019-01-10T10:11:23.705Z,25.00
2019-01-10T10:13:50.541Z,23.93
2019-01-10T10:16:17.074Z,24.00
2019-01-10T10:18:43.917Z,23.53
2019-01-10T10:21:10.456Z,26.83
2019-01-10T10:23:37.080Z,23.77
2019-01-10T10:26:03.830Z,26.23
2019-01-10T10:28:30.361Z,25.80
2019-01-10T10:30:56.896Z,21.87
2019-01-10T10:33:23.433Z,23.00
2019-01-10T10:35:50.273Z,25.30
2019-01-10T10:38:16.808Z,24.03
2019-01-10T10:40:43.648Z,23.53
2019-01-10T10:43:10.185Z,21.60
2019-01-10T10:45:37.024Z,22.83
2019-01-10T10:48:03.563Z,24.10
2019-01-10T10:50:31.104Z,25.23
2019-01-10T10:52:57.859Z,25.23
2019-01-10T10:55:24.391Z,23.73
2019-01-10T10:57:51.236Z,26.20
2019-01-10T11:00:17.769Z,27.50
2019-01-10T11:02:44.305Z,26.47
2019-01-10T11:05:11.143Z,24.90
2019-01-10T11:07:37.985Z,24.17
2019-01-10T11:10:04.521Z,22.57
2019-01-10T11:12:31.361Z,24.17
2019-01-10T11:14:57.900Z,25.77
2019-01-10T11:17:24.433Z,25.60
2019-01-10T11:19:51.216Z,23.67
2019-01-10T11:22:18.230Z,24.77
2019-01-10T11:24:44.955Z,29.50
2019-01-10T11:27:11.496Z,24.33
2019-01-10T11:29:38.330Z,27.63
2019-01-10T11:32:12.967Z,26.97
2019-01-10T11:34:33.695Z,28.00
2019-01-10T11:37:00.396Z,28.00
2019-01-10T11:39:26.929Z,28.77
2019-01-10T11:41:53.786Z,28.63
2019-01-10T11:44:20.303Z,26.60
2019-01-10T11:46:46.837Z,27.47
2019-01-10T11:49:13.678Z,27.10
2019-01-10T11:51:40.520Z,28.00
2019-01-10T11:54:07.059Z,26.77
2019-01-10T11:56:33.897Z,27.77
2019-01-10T11:59:00.740Z,24.83
2019-01-10T12:01:27.274Z,25.47
2019-01-10T12:03:53.807Z,25.63
2019-01-10T12:06:20.651Z,27.13
2019-01-10T12:08:47.199Z,29.67
2019-01-10T12:11:14.025Z,25.60
2019-01-10T12:13:40.561Z,28.00
2019-01-10T12:16:07.098Z,30.27
2019-01-10T12:18:33.634Z,31.37
2019-01-10T12:21:00.166Z,29.93
2019-01-10T12:23:26.699Z,30.77
2019-01-10T12:25:53.230Z,30.77
2019-01-10T12:28:20.080Z,25.37
2019-01-10T12:30:46.607Z,28.30
2019-01-10T12:33:13.448Z,28.87
2019-01-10T12:35:40.291Z,27.30
2019-01-10T12:38:06.825Z,31.23
2019-01-10T12:40:33.667Z,33.03
2019-01-10T12:43:00.186Z,30.57
2019-01-10T12:45:27.045Z,32.97
2019-01-10T12:47:53.579Z,35.00
2019-01-10T12:50:20.419Z,31.37
2019-01-10T12:52:47.261Z,28.73
2019-01-10T12:55:14.110Z,31.77
2019-01-10T12:57:40.638Z,29.43
2019-01-10T13:00:07.172Z,28.27
2019-01-10T13:02:33.756Z,29.93
2019-01-10T13:05:00.551Z,31.20
2019-01-10T13:07:27.087Z,28.73
2019-01-10T13:09:53.925Z,30.47
2019-01-10T13:12:20.768Z,27.03
2019-01-10T13:14:47.304Z,28.27
2019-01-10T13:17:13.833Z,30.70
2019-01-10T13:19:40.689Z,28.13
2019-01-10T13:22:07.210Z,27.27
2019-01-10T13:24:34.056Z,28.00
2019-01-10T13:27:00.586Z,28.33
2019-01-10T13:29:27.123Z,29.07
2019-01-10T13:31:53.962Z,28.57
2019-01-10T13:34:20.809Z,28.73
2019-01-10T13:36:47.649Z,29.30
2019-01-10T13:39:14.486Z,28.63
2019-01-10T13:41:41.338Z,28.77
2019-01-10T13:44:08.558Z,29.57
2019-01-10T13:46:35.628Z,26.53
2019-01-10T13:49:02.469Z,33.23
2019-01-10T13:51:29.004Z,30.60
2019-01-10T13:53:55.855Z,28.63
2019-01-10T13:56:22.380Z,33.13
2019-01-10T13:58:49.015Z,34.67
2019-01-10T14:01:15.763Z,30.40
2019-01-10T14:03:42.290Z,27.70
2019-01-10T14:06:08.846Z,26.83
2019-01-10T14:08:37.314Z,26.40
2019-01-10T14:11:03.738Z,28.90
2019-01-10T14:13:30.577Z,27.87
2019-01-10T14:15:57.423Z,25.90
2019-01-10T14:18:23.957Z,25.43
2019-01-10T14:20:50.797Z,27.40
2019-01-10T14:23:17.640Z,29.67
2019-01-10T14:25:44.479Z,26.40
2019-01-10T14:28:11.013Z,24.20
2019-01-10T14:30:37.858Z,27.50
2019-01-10T14:33:04.696Z,28.47
2019-01-10T14:35:32.298Z,34.20
2019-01-10T14:37:59.712Z,31.50
2019-01-10T14:40:27.009Z,28.33
2019-01-10T14:42:53.914Z,24.87
2019-01-10T14:45:20.747Z,25.77
2019-01-10T14:47:47.282Z,27.13
2019-01-10T14:50:14.630Z,27.80
2019-01-10T14:52:41.579Z,27.13
2019-01-10T14:55:08.115Z,25.27
2019-01-10T14:57:34.956Z,25.60
2019-01-10T15:00:01.808Z,25.73
2019-01-10T15:02:28.948Z,26.20
2019-01-10T15:05:01.730Z,24.33
2019-01-10T15:07:28.459Z,26.17
2019-01-10T15:09:55.312Z,25.27
2019-01-10T15:12:22.152Z,24.77
2019-01-10T15:14:48.684Z,26.40
2019-01-10T15:17:15.226Z,26.43
2019-01-10T15:19:41.753Z,24.63
2019-01-10T15:22:08.290Z,25.90
2019-01-10T15:24:34.826Z,25.67
2019-01-10T15:27:01.671Z,24.10
2019-01-10T15:29:28.207Z,25.67
2019-01-10T15:31:55.063Z,25.47
2019-01-10T15:34:21.576Z,27.70
2019-01-10T15:36:48.417Z,24.60
2019-01-10T15:39:14.954Z,25.47
2019-01-10T15:41:41.485Z,26.80
2019-01-10T15:44:08.326Z,25.80
2019-01-10T15:46:34.861Z,24.47
2019-01-10T15:49:01.401Z,25.30
2019-01-10T15:51:28.751Z,23.87
2019-01-10T15:53:55.388Z,24.40
2019-01-10T15:56:21.920Z,25.23
2019-01-10T15:58:48.455Z,23.20
2019-01-10T16:01:14.989Z,26.17
2019-01-10T16:03:41.841Z,25.83
2019-01-10T16:06:08.673Z,26.83
2019-01-10T16:08:35.514Z,25.57
2019-01-10T16:11:02.362Z,27.97
2019-01-10T16:13:28.893Z,24.70
2019-01-10T16:15:55.449Z,26.00
2019-01-10T16:18:22.266Z,25.83
2019-01-10T16:20:49.107Z,24.97
2019-01-10T16:23:15.653Z,25.37
2019-01-10T16:25:42.484Z,27.10
2019-01-10T16:28:09.332Z,26.40
2019-01-10T16:30:35.861Z,27.97
2019-01-10T16:33:02.703Z,26.40
2019-01-10T16:35:29.237Z,25.13
2019-01-10T16:37:55.778Z,24.53
2019-01-10T16:40:22.313Z,25.23
2019-01-10T16:42:48.840Z,27.87
2019-01-10T16:45:15.374Z,26.77
2019-01-10T16:47:42.216Z,26.23
2019-01-10T16:50:08.750Z,25.33
2019-01-10T16:52:35.288Z,26.73
2019-01-10T16:55:01.819Z,24.37
2019-01-10T16:57:28.356Z,27.20
2019-01-10T16:59:54.895Z,25.57
2019-01-10T17:02:21.731Z,26.60
2019-01-10T17:04:48.573Z,26.70
2019-01-10T17:07:15.413Z,29.27
2019-01-10T17:09:42.564Z,26.57
2019-01-10T17:12:09.408Z,27.33
2019-01-10T17:14:36.252Z,26.70
2019-01-10T17:17:03.087Z,26.10
2019-01-10T17:19:29.929Z,23.80
2019-01-10T17:21:56.772Z,24.90
2019-01-10T17:24:23.305Z,27.43
2019-01-10T17:26:50.173Z,25.77
2019-01-10T17:29:16.990Z,23.43
2019-01-10T17:31:43.544Z,28.03
2019-01-10T17:34:10.061Z,26.30
2019-01-10T17:36:36.906Z,27.23
2019-01-10T17:39:03.742Z,27.07
2019-01-10T17:41:30.583Z,26.10
2019-01-10T17:43:57.119Z,25.63
2019-01-10T17:46:23.960Z,23.67
2019-01-10T17:48:51.420Z,27.40
2019-01-10T17:51:17.949Z,25.73
2019-01-10T17:53:44.792Z,26.97
2019-01-10T17:56:11.636Z,25.27
2019-01-10T17:58:38.475Z,24.70
2019-01-10T18:01:05.012Z,25.70
2019-01-10T18:03:31.552Z,25.60
2019-01-10T18:05:58.949Z,25.97
2019-01-10T18:08:25.555Z,25.53
2019-01-10T18:10:52.684Z,25.87
2019-01-10T18:13:19.528Z,23.87
2019-01-10T18:15:46.083Z,22.93
2019-01-10T18:18:12.902Z,24.67
2019-01-10T18:20:39.749Z,24.97
2019-01-10T18:23:06.650Z,37.37
2019-01-10T18:25:33.427Z,23.93
2019-01-10T18:27:59.969Z,26.47
2019-01-10T18:30:27.138Z,23.40
2019-01-10T18:32:53.950Z,27.33
2019-01-10T18:35:26.131Z,23.43
2019-01-10T18:37:48.863Z,27.27
2019-01-10T18:40:15.399Z,24.30
2019-01-10T18:42:42.240Z,25.07
2019-01-10T18:45:09.387Z,22.87
2019-01-10T18:47:35.926Z,25.43
2019-01-10T18:50:02.766Z,24.83
2019-01-10T18:52:29.604Z,22.10
2019-01-10T18:55:00.212Z,22.83
2019-01-10T18:57:24.522Z,24.40
2019-01-10T18:59:51.365Z,25.03
2019-01-10T19:02:17.895Z,23.40
2019-01-10T19:04:44.735Z,22.83
2019-01-10T19:07:11.271Z,25.10
2019-01-10T19:09:37.810Z,24.83
2019-01-10T19:12:04.340Z,22.90
2019-01-10T19:14:30.875Z,24.40
2019-01-10T19:16:57.417Z,23.80
2019-01-10T19:19:24.255Z,27.17
2019-01-10T19:21:51.093Z,25.83
2019-01-10T19:24:17.932Z,26.63
2019-01-10T19:26:44.469Z,23.80
2019-01-10T19:29:11.316Z,24.27
2019-01-10T19:31:38.158Z,23.93
2019-01-10T19:34:04.997Z,26.53
2019-01-10T19:36:32.545Z,24.60
2019-01-10T19:38:59.297Z,23.90
2019-01-10T19:41:25.827Z,27.07
2019-01-10T19:43:52.363Z,24.87
2019-01-10T19:46:19.204Z,24.37
2019-01-10T19:48:45.742Z,24.43
2019-01-10T19:51:12.270Z,26.30
2019-01-10T19:53:38.791Z,22.47
2019-01-10T19:56:05.338Z,26.20
2019-01-10T19:58:31.976Z,23.53
2019-01-10T20:00:58.714Z,25.13
2019-01-10T20:03:25.249Z,24.73
2019-01-10T20:05:52.091Z,24.00
2019-01-10T20:08:18.628Z,29.00
2019-01-10T20:10:45.159Z,27.57
2019-01-10T20:13:11.696Z,24.80
2019-01-10T20:15:38.232Z,25.93
2019-01-10T20:18:04.764Z,23.70
2019-01-10T20:20:31.606Z,26.73
2019-01-10T20:22:58.143Z,24.63
2019-01-10T20:25:24.980Z,23.23
2019-01-10T20:27:51.523Z,27.50
2019-01-10T20:30:18.051Z,35.03
2019-01-10T20:32:44.587Z,31.27
2019-01-10T20:35:11.430Z,27.03
2019-01-10T20:37:38.275Z,27.70
2019-01-10T20:40:05.110Z,27.77
2019-01-10T20:42:31.774Z,27.73
2019-01-10T20:44:58.486Z,27.63
2019-01-10T20:47:25.329Z,29.67
2019-01-10T20:49:51.862Z,24.90
2019-01-10T20:52:18.703Z,28.83
2019-01-10T20:54:45.199Z,27.87
2019-01-10T20:57:12.082Z,25.00
2019-01-10T20:59:38.924Z,25.97
2019-01-10T21:02:05.455Z,25.73
2019-01-10T21:04:32.300Z,28.87
2019-01-10T21:06:58.835Z,29.33
2019-01-10T21:09:25.383Z,25.30
2019-01-10T21:11:52.210Z,25.80
2019-01-10T21:14:18.743Z,27.73
2019-01-10T21:16:45.287Z,25.60
2019-01-10T21:19:12.118Z,25.10
2019-01-10T21:21:38.654Z,27.37
2019-01-10T21:24:05.496Z,25.97
2019-01-10T21:26:32.029Z,28.57
2019-01-10T21:28:58.871Z,26.37
2019-01-10T21:31:25.706Z,24.23
2019-01-10T21:33:52.249Z,26.23
2019-01-10T21:36:18.783Z,26.60
2019-01-10T21:38:45.624Z,28.23
2019-01-10T21:41:12.159Z,26.90
2019-01-10T21:43:38.779Z,30.97
2019-01-10T21:46:05.540Z,31.47
2019-01-10T21:48:35.105Z,29.50
2019-01-10T21:51:00.448Z,25.17
2019-01-10T21:53:26.981Z,24.73
2019-01-10T21:55:53.518Z,26.93
2019-01-10T21:58:20.357Z,24.83
2019-01-10T22:00:47.197Z,26.70
2019-01-10T22:03:14.040Z,29.10
2019-01-10T22:05:40.579Z,26.30
2019-01-10T22:08:07.415Z,29.00
2019-01-10T22:10:34.257Z,30.83
2019-01-10T22:13:00.793Z,26.77
2019-01-10T22:15:27.633Z,28.17
2019-01-10T22:17:54.175Z,35.10
2019-01-10T22:20:21.011Z,30.27
2019-01-10T22:22:47.550Z,31.57
2019-01-10T22:25:14.079Z,32.03
2019-01-10T22:27:40.924Z,30.33
2019-01-10T22:30:07.456Z,30.33
2019-01-10T22:32:34.296Z,30.63
2019-01-10T22:35:01.145Z,30.13
2019-01-10T22:37:29.085Z,30.70
2019-01-10T22:39:56.049Z,31.77
2019-01-10T22:42:22.587Z,28.10
2019-01-10T22:44:49.125Z,28.90
2019-01-10T22:47:15.657Z,27.33
2019-01-10T22:49:42.494Z,24.90
2019-01-10T22:52:09.338Z,28.53
2019-01-10T22:54:36.187Z,26.27
2019-01-10T22:57:03.022Z,25.80
2019-01-10T22:59:30.168Z,25.13
2019-01-10T23:01:57.010Z,26.20
2019-01-10T23:04:23.851Z,24.97
2019-01-10T23:06:50.693Z,24.53
2019-01-10T23:09:17.227Z,25.00
2019-01-10T23:11:44.069Z,22.70
2019-01-10T23:14:10.611Z,24.73
2019-01-10T23:16:37.164Z,25.10
2019-01-10T23:19:03.982Z,25.17
2019-01-10T23:21:31.137Z,24.50
2019-01-10T23:23:57.971Z,24.33
2019-01-10T23:26:24.505Z,24.50
2019-01-10T23:28:51.041Z,27.17
2019-01-10T23:31:17.579Z,24.53
2019-01-10T23:33:46.074Z,26.80
2019-01-10T23:36:12.828Z,24.03
2019-01-10T23:38:39.330Z,26.50
2019-01-10T23:41:05.862Z,24.63
2019-01-10T23:43:32.398Z,24.03
2019-01-10T23:45:59.242Z,25.43
2019-01-10T23:48:26.085Z,22.67
2019-01-10T23:50:52.926Z,24.63
2019-01-10T23:53:19.464Z,22.47
2019-01-10T23:55:45.993Z,23.83
2019-01-10T23:58:12.537Z,22.63
